Time;durP1;ratioP1;P1;durP2;ratioP2;P2;SDS_P1;SDS_P2;PMS_P1;PMS_P2;Temp;Humidity;BMP_temperature;BMP_pressure;BME280_temperature;BME280_humidity;BME280_pressure;Samples;Min_cycle;Max_cycle;Signal;HPM_P1;HPM_P2
2022/03/28 00:00:16;;;;;;;39.80;23.15;;;;;;;;;;5011277;28;20041;-82
2022/03/28 00:02:44;;;;;;;38.70;22.10;;;;;;;;;;5028822;28;20448;-82
2022/03/28 00:05:10;;;;;;;36.47;22.05;;;;;;;;;;5048169;28;20129;-82
2022/03/28 00:07:36;;;;;;;43.95;23.70;;;;;;;;;;5031470;28;20412;-81
2022/03/28 00:10:03;;;;;;;40.42;22.08;;;;;;;;;;5031520;28;20045;-81
2022/03/28 00:12:31;;;;;;;36.22;21.48;;;;;;;;;;5031686;28;20049;-82
2022/03/28 00:14:57;;;;;;;41.22;23.17;;;;;;;;;;5031756;28;20539;-82
2022/03/28 00:17:23;;;;;;;43.50;25.10;;;;;;;;;;5015028;28;20033;-81
2022/03/28 00:19:49;;;;;;;52.17;28.45;;;;;;;;;;5014321;28;20129;-82
2022/03/28 00:22:15;;;;;;;57.30;31.88;;;;;;;;;;5014554;28;20053;-82
2022/03/28 00:24:41;;;;;;;62.40;32.45;;;;;;;;;;5030763;28;20041;-81
2022/03/28 00:27:08;;;;;;;65.10;34.80;;;;;;;;;;5019650;28;20058;-81
2022/03/28 00:29:34;;;;;;;68.68;35.40;;;;;;;;;;5011624;28;20033;-81
2022/03/28 00:32:01;;;;;;;55.58;31.95;;;;;;;;;;5030181;28;20154;-82
2022/03/28 00:34:27;;;;;;;63.88;34.65;;;;;;;;;;5047641;28;20139;-82
2022/03/28 00:36:53;;;;;;;61.90;33.60;;;;;;;;;;5031296;28;20045;-82
2022/03/28 00:39:20;;;;;;;55.05;30.80;;;;;;;;;;5047508;28;20034;-82
2022/03/28 00:41:50;;;;;;;62.88;34.63;;;;;;;;;;5032048;28;20041;-81
2022/03/28 00:44:17;;;;;;;61.53;34.40;;;;;;;;;;5030469;28;20053;-82
2022/03/28 00:46:43;;;;;;;59.97;32.85;;;;;;;;;;5030894;28;20051;-81
2022/03/28 00:49:09;;;;;;;57.50;32.72;;;;;;;;;;5014265;28;20133;-82
2022/03/28 00:51:42;;;;;;;56.10;32.22;;;;;;;;;;5014808;28;20064;-82
2022/03/28 00:54:08;;;;;;;56.30;32.22;;;;;;;;;;5047158;28;20033;-81
2022/03/28 00:56:37;;;;;;;55.45;31.60;;;;;;;;;;5015367;28;20045;-82
2022/03/28 00:59:04;;;;;;;65.20;32.28;;;;;;;;;;5047876;28;20112;-82
2022/03/28 01:01:30;;;;;;;49.85;28.77;;;;;;;;;;5046994;28;20037;-82
2022/03/28 01:03:57;;;;;;;47.72;28.40;;;;;;;;;;5014326;28;20041;-82
2022/03/28 01:06:24;;;;;;;57.85;33.50;;;;;;;;;;5014940;28;20045;-82
2022/03/28 01:08:50;;;;;;;50.88;30.83;;;;;;;;;;5030732;28;20524;-82
2022/03/28 01:11:17;;;;;;;56.42;31.98;;;;;;;;;;5010755;28;20580;-82
2022/03/28 01:13:44;;;;;;;53.85;30.85;;;;;;;;;;5018725;28;20041;-82
2022/03/28 01:16:10;;;;;;;55.08;31.13;;;;;;;;;;5029393;28;20037;-82
2022/03/28 01:18:36;;;;;;;46.63;28.08;;;;;;;;;;5046935;28;20033;-82
2022/03/28 01:21:03;;;;;;;39.58;24.27;;;;;;;;;;5010923;28;20496;-82
2022/03/28 01:23:30;;;;;;;40.55;23.67;;;;;;;;;;5011510;28;20562;-82
2022/03/28 01:25:56;;;;;;;37.33;22.23;;;;;;;;;;5022621;28;20045;-82
2022/03/28 01:28:24;;;;;;;38.70;22.90;;;;;;;;;;5030406;28;20132;-82
2022/03/28 01:30:51;;;;;;;39.47;24.25;;;;;;;;;;5013814;28;20406;-82
2022/03/28 01:33:17;;;;;;;37.80;23.80;;;;;;;;;;5012371;28;20458;-81
2022/03/28 01:35:44;;;;;;;41.15;24.85;;;;;;;;;;5027956;28;20451;-82
2022/03/28 01:38:11;;;;;;;33.70;21.90;;;;;;;;;;5029613;28;20040;-82
2022/03/28 01:40:43;;;;;;;38.00;24.45;;;;;;;;;;5031423;28;20088;-81
2022/03/28 01:43:09;;;;;;;39.78;24.42;;;;;;;;;;5046639;28;20068;-82
2022/03/28 01:45:36;;;;;;;35.83;21.88;;;;;;;;;;5029743;28;20427;-82
2022/03/28 01:48:02;;;;;;;35.20;22.45;;;;;;;;;;5047210;28;20045;-82
2022/03/28 01:50:28;;;;;;;34.33;22.20;;;;;;;;;;5028956;28;20041;-82
2022/03/28 01:52:54;;;;;;;36.25;22.00;;;;;;;;;;5013213;28;20048;-81
2022/03/28 01:55:21;;;;;;;34.35;21.63;;;;;;;;;;5013105;28;20094;-81
2022/03/28 01:57:47;;;;;;;33.65;21.33;;;;;;;;;;5029928;28;20045;-82
2022/03/28 02:00:15;;;;;;;35.33;21.83;;;;;;;;;;5012575;28;20049;-82
2022/03/28 02:02:41;;;;;;;33.45;20.92;;;;;;;;;;5029210;28;20037;-82
2022/03/28 02:05:11;;;;;;;32.10;20.33;;;;;;;;;;5029458;28;20041;-82
2022/03/28 02:07:38;;;;;;;30.10;19.63;;;;;;;;;;5030175;28;20127;-82
2022/03/28 02:10:05;;;;;;;29.88;19.65;;;;;;;;;;5046469;28;20362;-81
2022/03/28 02:12:31;;;;;;;27.25;17.40;;;;;;;;;;5029268;28;20120;-82
2022/03/28 02:14:57;;;;;;;26.73;17.05;;;;;;;;;;5019914;28;20138;-82
2022/03/28 02:17:24;;;;;;;29.10;18.45;;;;;;;;;;5024444;28;20416;-82
2022/03/28 02:19:50;;;;;;;30.52;18.65;;;;;;;;;;5028503;28;20037;-82
2022/03/28 02:22:16;;;;;;;31.35;19.17;;;;;;;;;;5012011;28;20038;-82
2022/03/28 02:24:42;;;;;;;28.40;18.38;;;;;;;;;;5028714;28;20041;-82
2022/03/28 02:27:08;;;;;;;28.17;18.95;;;;;;;;;;5028807;28;20033;-82
2022/03/28 02:29:35;;;;;;;29.10;18.33;;;;;;;;;;5012745;28;20577;-82
2022/03/28 02:32:07;;;;;;;29.88;20.85;;;;;;;;;;5028743;28;20045;-82
2022/03/28 02:34:34;;;;;;;31.90;20.77;;;;;;;;;;5009238;28;20046;-82
2022/03/28 02:37:00;;;;;;;30.17;20.75;;;;;;;;;;5019600;28;20120;-82
2022/03/28 02:39:26;;;;;;;32.13;20.48;;;;;;;;;;5020587;28;20033;-82
2022/03/28 02:41:52;;;;;;;35.47;21.50;;;;;;;;;;5012421;28;20341;-82
2022/03/28 02:44:19;;;;;;;34.33;20.60;;;;;;;;;;5028605;28;20044;-82
2022/03/28 02:46:46;;;;;;;32.67;19.88;;;;;;;;;;5044974;28;20213;-82
2022/03/28 02:49:13;;;;;;;32.92;19.48;;;;;;;;;;5028830;28;20045;-82
2022/03/28 02:51:39;;;;;;;33.78;20.77;;;;;;;;;;5045216;28;20042;-82
2022/03/28 02:54:06;;;;;;;34.50;21.10;;;;;;;;;;5045498;28;20044;-82
2022/03/28 02:56:32;;;;;;;37.35;23.13;;;;;;;;;;5012355;28;20084;-82
2022/03/28 02:58:59;;;;;;;38.15;23.17;;;;;;;;;;5009476;28;20277;-82
2022/03/28 03:01:25;;;;;;;36.90;21.88;;;;;;;;;;5012032;28;20516;-82
2022/03/28 03:03:51;;;;;;;35.28;22.02;;;;;;;;;;5028547;28;20037;-82
2022/03/28 03:06:18;;;;;;;35.65;22.30;;;;;;;;;;5011929;28;20048;-82
2022/03/28 03:08:44;;;;;;;37.25;22.35;;;;;;;;;;5011821;28;20049;-82
2022/03/28 03:11:11;;;;;;;32.75;21.75;;;;;;;;;;5008591;28;20041;-82
2022/03/28 03:13:37;;;;;;;38.35;23.55;;;;;;;;;;5008639;28;20123;-82
2022/03/28 03:16:07;;;;;;;40.35;24.15;;;;;;;;;;5008577;28;20064;-82
2022/03/28 03:18:33;;;;;;;41.40;26.13;;;;;;;;;;5023963;28;20103;-82
2022/03/28 03:20:59;;;;;;;39.22;25.10;;;;;;;;;;5027558;28;20072;-82
2022/03/28 03:23:26;;;;;;;38.45;24.67;;;;;;;;;;5028013;28;20041;-82
2022/03/28 03:25:52;;;;;;;42.17;25.40;;;;;;;;;;5011307;28;20045;-82
2022/03/28 03:28:20;;;;;;;40.83;24.98;;;;;;;;;;5027403;28;20041;-82
2022/03/28 03:30:46;;;;;;;38.40;25.02;;;;;;;;;;5027379;28;20463;-83
2022/03/28 03:33:12;;;;;;;38.50;23.50;;;;;;;;;;5027269;28;20386;-82
2022/03/28 03:35:40;;;;;;;39.17;23.83;;;;;;;;;;5027954;28;20405;-82
2022/03/28 03:38:06;;;;;;;37.88;23.63;;;;;;;;;;5045122;28;20041;-82
2022/03/28 03:40:32;;;;;;;36.05;22.48;;;;;;;;;;5034499;28;20045;-81
2022/03/28 03:42:58;;;;;;;37.72;23.35;;;;;;;;;;5017836;28;20052;-82
2022/03/28 03:45:25;;;;;;;33.75;20.27;;;;;;;;;;5047986;28;20045;-82
2022/03/28 03:47:51;;;;;;;31.55;18.80;;;;;;;;;;5012494;28;20068;-82
2022/03/28 03:50:17;;;;;;;30.42;18.08;;;;;;;;;;5017247;28;20052;-82
2022/03/28 03:52:44;;;;;;;29.30;17.77;;;;;;;;;;5017060;28;20045;-82
2022/03/28 03:55:10;;;;;;;30.95;18.33;;;;;;;;;;5017978;28;20091;-82
2022/03/28 03:57:36;;;;;;;27.30;16.88;;;;;;;;;;5034509;28;20048;-82
2022/03/28 04:00:04;;;;;;;26.80;16.35;;;;;;;;;;5050699;28;20040;-82
2022/03/28 04:02:30;;;;;;;25.00;15.82;;;;;;;;;;5051290;28;20512;-82
2022/03/28 04:04:56;;;;;;;30.17;18.13;;;;;;;;;;5051910;28;20052;-82
2022/03/28 04:07:22;;;;;;;29.42;16.48;;;;;;;;;;5051150;28;20045;-82
2022/03/28 04:09:49;;;;;;;33.50;19.23;;;;;;;;;;5034120;28;20132;-82
2022/03/28 04:12:15;;;;;;;33.88;18.95;;;;;;;;;;5050567;28;20207;-82
2022/03/28 04:14:41;;;;;;;33.47;19.52;;;;;;;;;;5017607;28;20081;-82
2022/03/28 04:17:07;;;;;;;31.65;17.80;;;;;;;;;;5017834;28;20120;-82
2022/03/28 04:19:34;;;;;;;30.20;18.77;;;;;;;;;;5034648;28;20121;-82
2022/03/28 04:22:00;;;;;;;29.80;17.30;;;;;;;;;;5034217;28;20156;-82
2022/03/28 04:24:26;;;;;;;31.40;17.75;;;;;;;;;;5033979;28;20048;-82
2022/03/28 04:26:52;;;;;;;29.67;17.23;;;;;;;;;;5034013;28;20073;-81
2022/03/28 04:29:19;;;;;;;26.80;16.23;;;;;;;;;;5017664;28;20488;-82
2022/03/28 04:31:45;;;;;;;26.70;15.95;;;;;;;;;;5033905;28;20061;-82
2022/03/28 04:34:11;;;;;;;28.13;16.55;;;;;;;;;;5014533;28;20429;-82
2022/03/28 04:36:39;;;;;;;33.00;15.77;;;;;;;;;;5014098;28;20057;-82
2022/03/28 04:39:05;;;;;;;29.13;14.80;;;;;;;;;;5028986;28;20387;-82
2022/03/28 04:41:32;;;;;;;28.70;15.70;;;;;;;;;;5034383;28;20412;-82
2022/03/28 04:43:58;;;;;;;28.08;15.00;;;;;;;;;;5034180;28;20348;-82
2022/03/28 04:46:24;;;;;;;25.05;13.85;;;;;;;;;;5041004;28;20136;-82
2022/03/28 04:48:51;;;;;;;27.85;13.43;;;;;;;;;;5031844;28;20401;-82
2022/03/28 04:51:17;;;;;;;20.92;11.70;;;;;;;;;;5013259;28;20048;-82
2022/03/28 04:53:43;;;;;;;19.83;10.00;;;;;;;;;;5047497;28;20049;-82
2022/03/28 04:56:09;;;;;;;17.40;9.02;;;;;;;;;;5011145;28;20042;-82
2022/03/28 04:58:35;;;;;;;13.98;7.80;;;;;;;;;;5025229;28;20068;-82
2022/03/28 05:01:02;;;;;;;12.80;6.05;;;;;;;;;;5029778;28;20124;-82
2022/03/28 05:03:28;;;;;;;12.65;6.40;;;;;;;;;;5029998;28;20045;-82
2022/03/28 05:05:54;;;;;;;11.35;5.85;;;;;;;;;;5014279;28;20512;-81
2022/03/28 05:08:20;;;;;;;14.05;6.97;;;;;;;;;;5030348;28;20048;-81
2022/03/28 05:10:46;;;;;;;12.75;6.32;;;;;;;;;;5014454;28;20504;-82
2022/03/28 05:13:13;;;;;;;13.50;7.00;;;;;;;;;;5046071;28;20041;-82
2022/03/28 05:15:39;;;;;;;13.77;6.78;;;;;;;;;;5012732;28;20049;-82
2022/03/28 05:18:05;;;;;;;14.23;6.28;;;;;;;;;;5029361;28;20121;-82
2022/03/28 05:20:31;;;;;;;14.45;6.68;;;;;;;;;;5032505;28;20041;-82
2022/03/28 05:22:57;;;;;;;14.55;6.63;;;;;;;;;;5016655;28;20037;-83
2022/03/28 05:25:24;;;;;;;12.68;6.00;;;;;;;;;;5033536;28;20083;-82
2022/03/28 05:27:50;;;;;;;12.10;6.00;;;;;;;;;;5021397;28;20045;-82
2022/03/28 05:30:19;;;;;;;12.20;5.47;;;;;;;;;;5022850;28;20041;-81
2022/03/28 05:32:45;;;;;;;10.80;4.63;;;;;;;;;;5027677;28;20049;-82
2022/03/28 05:35:12;;;;;;;13.20;5.13;;;;;;;;;;5022014;28;20045;-82
2022/03/28 05:37:38;;;;;;;9.90;4.22;;;;;;;;;;5032498;28;20052;-81
2022/03/28 05:40:04;;;;;;;10.38;4.28;;;;;;;;;;5031968;28;20381;-81
2022/03/28 05:42:31;;;;;;;12.18;4.85;;;;;;;;;;5013667;28;20115;-81
2022/03/28 05:44:57;;;;;;;10.55;4.97;;;;;;;;;;5030511;28;20041;-81
2022/03/28 05:47:23;;;;;;;8.80;4.00;;;;;;;;;;5013811;28;20402;-81
2022/03/28 05:49:49;;;;;;;11.07;5.18;;;;;;;;;;5029742;28;20064;-81
2022/03/28 05:52:16;;;;;;;8.75;3.88;;;;;;;;;;5029539;28;20049;-81
2022/03/28 05:54:42;;;;;;;11.00;4.60;;;;;;;;;;5046993;28;20399;-82
2022/03/28 05:57:08;;;;;;;9.65;4.43;;;;;;;;;;5030925;28;20540;-81
2022/03/28 05:59:34;;;;;;;9.30;4.20;;;;;;;;;;5030593;28;20038;-81
2022/03/28 06:02:00;;;;;;;10.88;5.00;;;;;;;;;;5013418;28;20053;-81
2022/03/28 06:04:27;;;;;;;11.43;5.38;;;;;;;;;;5030174;28;20044;-82
2022/03/28 06:06:53;;;;;;;11.40;5.40;;;;;;;;;;5030088;28;20041;-81
2022/03/28 06:09:19;;;;;;;12.75;6.25;;;;;;;;;;5030260;28;20493;-82
2022/03/28 06:11:45;;;;;;;18.67;7.97;;;;;;;;;;5029315;28;20049;-82
2022/03/28 06:14:12;;;;;;;16.95;8.20;;;;;;;;;;5028794;28;20041;-82
2022/03/28 06:16:38;;;;;;;18.50;8.98;;;;;;;;;;5012565;28;20039;-82
2022/03/28 06:19:04;;;;;;;25.75;11.10;;;;;;;;;;5013039;28;20370;-82
2022/03/28 06:21:31;;;;;;;29.92;13.13;;;;;;;;;;5008858;28;20046;-82
2022/03/28 06:24:00;;;;;;;28.70;12.88;;;;;;;;;;5012151;28;20045;-82
2022/03/28 06:26:26;;;;;;;31.83;14.23;;;;;;;;;;5028557;28;20049;-82
2022/03/28 06:28:52;;;;;;;33.47;14.38;;;;;;;;;;5028727;28;20052;-82
2022/03/28 06:31:19;;;;;;;38.90;17.48;;;;;;;;;;5028647;28;20061;-82
2022/03/28 06:33:45;;;;;;;42.78;18.40;;;;;;;;;;5028681;28;20049;-82
2022/03/28 06:36:11;;;;;;;46.72;22.58;;;;;;;;;;5011897;28;20037;-81
2022/03/28 06:38:38;;;;;;;43.35;21.40;;;;;;;;;;5033801;28;20049;-81
2022/03/28 06:41:04;;;;;;;44.17;22.45;;;;;;;;;;4992643;28;20100;-83
2022/03/28 06:43:30;;;;;;;43.85;22.80;;;;;;;;;;5028399;28;20041;-83
2022/03/28 06:45:56;;;;;;;39.50;20.77;;;;;;;;;;5028640;28;20048;-82
2022/03/28 06:48:22;;;;;;;42.42;21.83;;;;;;;;;;5028319;28;20073;-83
2022/03/28 06:50:49;;;;;;;38.95;20.65;;;;;;;;;;5045845;28;20037;-84
2022/03/28 06:53:15;;;;;;;36.40;20.23;;;;;;;;;;5013124;28;20314;-82
2022/03/28 06:55:41;;;;;;;34.42;19.77;;;;;;;;;;5022445;28;20069;-83
2022/03/28 06:58:07;;;;;;;33.38;18.77;;;;;;;;;;5019543;28;20539;-83
2022/03/28 07:00:34;;;;;;;36.92;21.27;;;;;;;;;;5012384;28;20072;-82
2022/03/28 07:03:01;;;;;;;37.30;21.23;;;;;;;;;;5045287;28;20048;-83
2022/03/28 07:05:36;;;;;;;36.55;20.80;;;;;;;;;;5011988;28;20519;-83
2022/03/28 07:08:12;;;;;;;39.05;21.63;;;;;;;;;;5044954;28;20080;-83
2022/03/28 07:10:39;;;;;;;35.80;20.33;;;;;;;;;;5027997;28;20493;-83
2022/03/28 07:13:05;;;;;;;34.95;20.83;;;;;;;;;;5027354;28;20068;-83
2022/03/28 07:15:31;;;;;;;31.80;18.95;;;;;;;;;;5027390;28;20079;-82
2022/03/28 07:18:02;;;;;;;35.50;19.55;;;;;;;;;;5012212;28;20038;-83
2022/03/28 07:20:29;;;;;;;36.38;19.83;;;;;;;;;;5012143;28;20065;-83
2022/03/28 07:22:56;;;;;;;35.65;20.00;;;;;;;;;;5030091;28;20475;-83
2022/03/28 07:25:23;;;;;;;35.70;20.50;;;;;;;;;;5045300;28;20056;-83
2022/03/28 07:27:50;;;;;;;33.78;19.98;;;;;;;;;;5032807;28;20497;-83
2022/03/28 07:30:17;;;;;;;36.15;19.42;;;;;;;;;;5039668;28;20437;-84
2022/03/28 07:32:43;;;;;;;31.38;18.63;;;;;;;;;;5022182;28;20080;-84
2022/03/28 07:35:10;;;;;;;29.00;17.52;;;;;;;;;;5012532;28;20099;-84
2022/03/28 07:37:38;;;;;;;31.70;17.50;;;;;;;;;;5028732;28;20073;-83
2022/03/28 07:40:08;;;;;;;27.30;15.73;;;;;;;;;;5009899;28;20073;-83
2022/03/28 07:42:35;;;;;;;30.08;16.25;;;;;;;;;;5012574;28;20073;-83
2022/03/28 07:45:03;;;;;;;28.42;16.08;;;;;;;;;;5027541;28;20051;-84
2022/03/28 07:47:29;;;;;;;30.52;18.35;;;;;;;;;;5011142;28;20087;-84
2022/03/28 07:49:57;;;;;;;30.67;17.75;;;;;;;;;;5012691;28;20081;-83
2022/03/28 07:52:23;;;;;;;30.80;17.20;;;;;;;;;;5031496;28;20120;-83
2022/03/28 07:54:50;;;;;;;32.45;17.48;;;;;;;;;;5060397;28;20037;-82
2022/03/28 07:57:17;;;;;;;28.58;17.33;;;;;;;;;;5037632;28;20393;-83
2022/03/28 07:59:44;;;;;;;30.08;17.98;;;;;;;;;;5031077;28;20084;-83
2022/03/28 08:02:10;;;;;;;30.65;17.85;;;;;;;;;;5028498;28;20033;-82
2022/03/28 08:04:37;;;;;;;30.00;17.77;;;;;;;;;;5010430;28;20037;-82
2022/03/28 08:07:05;;;;;;;30.65;16.45;;;;;;;;;;5027650;28;20045;-82
2022/03/28 08:09:32;;;;;;;24.23;14.20;;;;;;;;;;5029219;28;20132;-82
2022/03/28 08:11:59;;;;;;;25.40;14.68;;;;;;;;;;5029352;28;20264;-81
2022/03/28 08:14:28;;;;;;;25.10;15.10;;;;;;;;;;5029502;28;20049;-83
2022/03/28 08:16:55;;;;;;;21.23;12.68;;;;;;;;;;5013196;28;20060;-82
2022/03/28 08:19:21;;;;;;;20.02;12.13;;;;;;;;;;5017400;28;20037;-83
2022/03/28 08:21:48;;;;;;;20.30;12.15;;;;;;;;;;5023270;28;20049;-83
2022/03/28 08:24:14;;;;;;;20.30;12.55;;;;;;;;;;5028362;28;20099;-82
2022/03/28 08:26:40;;;;;;;19.02;11.98;;;;;;;;;;5020410;28;20041;-82
2022/03/28 08:29:07;;;;;;;19.40;12.55;;;;;;;;;;5016020;28;20096;-81
2022/03/28 08:31:33;;;;;;;21.00;12.25;;;;;;;;;;5059144;28;20063;-82
2022/03/28 08:34:00;;;;;;;17.80;9.95;;;;;;;;;;5050336;28;20455;-81
2022/03/28 08:36:26;;;;;;;18.88;10.77;;;;;;;;;;5050617;28;20036;-80
2022/03/28 08:38:52;;;;;;;18.55;10.80;;;;;;;;;;5025532;28;20215;-81
2022/03/28 08:41:19;;;;;;;18.90;10.45;;;;;;;;;;5033937;28;20052;-82
2022/03/28 08:43:46;;;;;;;18.25;10.60;;;;;;;;;;5033557;28;20080;-83
2022/03/28 08:46:12;;;;;;;16.70;10.43;;;;;;;;;;5023961;28;20084;-82
2022/03/28 08:48:40;;;;;;;15.98;8.90;;;;;;;;;;5022293;28;20038;-81
2022/03/28 08:51:08;;;;;;;14.02;8.38;;;;;;;;;;5029533;28;20050;-82
2022/03/28 08:53:34;;;;;;;13.15;8.38;;;;;;;;;;5019909;28;20040;-81
2022/03/28 08:56:00;;;;;;;14.65;8.80;;;;;;;;;;5031679;28;20037;-81
2022/03/28 08:58:27;;;;;;;14.00;8.73;;;;;;;;;;5026975;28;20030;-81
2022/03/28 09:00:53;;;;;;;15.75;8.32;;;;;;;;;;5034403;28;20033;-82
2022/03/28 09:03:19;;;;;;;13.77;8.32;;;;;;;;;;5034771;28;20106;-82
2022/03/28 09:05:47;;;;;;;17.05;9.45;;;;;;;;;;5019928;28;20041;-81
2022/03/28 09:08:13;;;;;;;14.98;9.15;;;;;;;;;;5036430;28;20394;-81
2022/03/28 09:10:45;;;;;;;15.10;9.32;;;;;;;;;;5048115;28;20075;-82
2022/03/28 09:13:12;;;;;;;14.65;8.60;;;;;;;;;;5052369;28;20076;-82
2022/03/28 09:15:55;;;;;;;16.15;9.95;;;;;;;;;;5043504;28;20041;-82
2022/03/28 09:18:28;;;;;;;16.75;9.75;;;;;;;;;;5031723;28;20088;-82
2022/03/28 09:20:59;;;;;;;16.00;9.35;;;;;;;;;;5032420;28;20493;-82
2022/03/28 09:23:39;;;;;;;14.48;9.52;;;;;;;;;;5039287;28;20029;-82
2022/03/28 09:26:16;;;;;;;18.48;9.90;;;;;;;;;;5030366;28;20073;-82
2022/03/28 09:28:46;;;;;;;18.33;10.95;;;;;;;;;;5025318;28;20045;-83
2022/03/28 09:31:21;;;;;;;16.15;10.20;;;;;;;;;;5033592;28;20053;-82
2022/03/28 09:34:11;;;;;;;16.77;10.15;;;;;;;;;;5038012;28;20457;-83
2022/03/28 09:36:42;;;;;;;17.73;10.10;;;;;;;;;;5010733;28;20053;-84
2022/03/28 09:39:27;;;;;;;18.23;11.02;;;;;;;;;;5003352;28;20112;-83
2022/03/28 09:42:00;;;;;;;17.70;10.77;;;;;;;;;;5032261;28;20064;-84
2022/03/28 09:44:39;;;;;;;17.33;10.77;;;;;;;;;;5047820;28;20552;-83
2022/03/28 09:47:17;;;;;;;17.48;11.15;;;;;;;;;;5020109;28;20056;-84
2022/03/28 09:49:44;;;;;;;18.83;11.60;;;;;;;;;;5014816;28;20053;-82
2022/03/28 09:52:14;;;;;;;19.83;12.48;;;;;;;;;;5048887;28;20091;-82
2022/03/28 09:54:44;;;;;;;20.65;12.65;;;;;;;;;;5016112;28;20049;-82
2022/03/28 09:57:11;;;;;;;19.55;11.43;;;;;;;;;;5032361;28;20049;-82
2022/03/28 09:59:38;;;;;;;17.08;10.80;;;;;;;;;;5009018;28;20533;-83
2022/03/28 10:02:15;;;;;;;17.52;11.38;;;;;;;;;;5026138;28;20052;-82
2022/03/28 10:04:44;;;;;;;16.27;10.27;;;;;;;;;;5016722;28;20496;-82
2022/03/28 10:07:10;;;;;;;18.00;11.63;;;;;;;;;;5049776;28;20087;-82
2022/03/28 10:09:37;;;;;;;16.60;10.52;;;;;;;;;;5049394;28;20091;-82
2022/03/28 10:12:04;;;;;;;16.63;10.80;;;;;;;;;;5040725;28;20037;-82
2022/03/28 10:14:31;;;;;;;17.80;11.25;;;;;;;;;;5031670;28;20095;-82
2022/03/28 10:16:57;;;;;;;18.40;10.70;;;;;;;;;;5012264;28;20033;-83
2022/03/28 10:19:23;;;;;;;16.27;10.48;;;;;;;;;;5013745;28;20121;-83
2022/03/28 10:21:50;;;;;;;17.05;10.52;;;;;;;;;;5048623;28;20501;-83
2022/03/28 10:24:24;;;;;;;19.02;11.45;;;;;;;;;;5014957;28;20120;-83
2022/03/28 10:27:01;;;;;;;20.73;11.38;;;;;;;;;;5020209;28;20047;-84
2022/03/28 10:29:35;;;;;;;17.55;11.68;;;;;;;;;;5023876;28;20449;-83
2022/03/28 10:32:03;;;;;;;17.00;10.57;;;;;;;;;;5032410;28;20129;-82
2022/03/28 10:34:48;;;;;;;18.33;10.68;;;;;;;;;;5032733;28;20045;-82
2022/03/28 10:37:34;;;;;;;17.67;10.57;;;;;;;;;;5017402;28;20050;-84
2022/03/28 10:40:13;;;;;;;19.38;12.32;;;;;;;;;;5032128;28;20197;-84
2022/03/28 10:42:45;;;;;;;23.25;14.77;;;;;;;;;;5043768;28;20041;-83
2022/03/28 10:45:12;;;;;;;19.83;13.10;;;;;;;;;;5024332;28;20038;-82
2022/03/28 10:47:41;;;;;;;17.35;10.90;;;;;;;;;;5029972;28;20049;-82
2022/03/28 10:50:17;;;;;;;16.67;10.85;;;;;;;;;;5044339;28;20103;-83
2022/03/28 10:53:01;;;;;;;19.40;12.05;;;;;;;;;;5046984;28;20054;-82
2022/03/28 10:55:57;;;;;;;17.30;11.55;;;;;;;;;;5020655;28;20033;-81
2022/03/28 10:58:28;;;;;;;18.30;11.48;;;;;;;;;;5010144;28;20397;-82
2022/03/28 11:01:07;;;;;;;19.90;11.35;;;;;;;;;;5047326;28;20045;-82
2022/03/28 11:03:34;;;;;;;18.80;12.23;;;;;;;;;;5036685;28;20397;-84
2022/03/28 11:06:00;;;;;;;18.67;12.35;;;;;;;;;;5014201;28;20052;-83
2022/03/28 11:08:30;;;;;;;19.88;13.10;;;;;;;;;;5030641;28;20513;-83
2022/03/28 11:11:12;;;;;;;19.48;11.90;;;;;;;;;;5026417;28;20042;-83
2022/03/28 11:13:38;;;;;;;17.40;11.43;;;;;;;;;;5020197;28;20053;-83
2022/03/28 11:16:05;;;;;;;18.52;12.32;;;;;;;;;;5013801;28;20563;-82
2022/03/28 11:18:31;;;;;;;18.92;13.20;;;;;;;;;;5047834;28;20038;-82
2022/03/28 11:20:57;;;;;;;18.27;11.68;;;;;;;;;;5048223;28;20034;-82
2022/03/28 11:23:23;;;;;;;18.08;12.02;;;;;;;;;;5048481;28;20519;-83
2022/03/28 11:25:51;;;;;;;17.85;12.00;;;;;;;;;;5021358;28;20041;-83
2022/03/28 11:28:26;;;;;;;18.65;12.73;;;;;;;;;;5029603;28;20124;-84
2022/03/28 11:31:01;;;;;;;19.45;12.82;;;;;;;;;;5034405;28;20045;-83
2022/03/28 11:33:35;;;;;;;17.98;12.52;;;;;;;;;;5029462;28;20111;-83
2022/03/28 11:36:03;;;;;;;18.00;12.07;;;;;;;;;;5029638;28;20048;-83
2022/03/28 11:38:30;;;;;;;17.42;11.73;;;;;;;;;;5029198;28;20049;-85
2022/03/28 11:40:57;;;;;;;18.30;12.75;;;;;;;;;;5030302;28;20048;-84
2022/03/28 11:43:43;;;;;;;18.25;12.15;;;;;;;;;;5029805;28;20041;-84
2022/03/28 11:46:20;;;;;;;20.65;12.15;;;;;;;;;;5029769;28;20045;-84
2022/03/28 11:49:03;;;;;;;18.80;12.60;;;;;;;;;;5028178;28;20064;-84
2022/03/28 11:51:30;;;;;;;19.23;13.07;;;;;;;;;;5009360;28;20398;-84
2022/03/28 11:54:00;;;;;;;20.63;13.57;;;;;;;;;;5012536;28;20045;-87
2022/03/28 11:56:27;;;;;;;19.02;13.02;;;;;;;;;;5013258;28;20507;-85
2022/03/28 11:59:01;;;;;;;33.60;14.00;;;;;;;;;;5011201;28;20037;-83
2022/03/28 12:01:27;;;;;;;19.95;13.27;;;;;;;;;;5010864;28;20033;-85
2022/03/28 12:03:54;;;;;;;19.55;12.93;;;;;;;;;;5032223;28;20037;-84
2022/03/28 12:06:46;;;;;;;18.23;12.25;;;;;;;;;;5017936;28;20044;-84
2022/03/28 12:09:20;;;;;;;18.92;13.32;;;;;;;;;;5030348;28;20112;-84
2022/03/28 12:11:53;;;;;;;21.95;14.25;;;;;;;;;;5048302;28;20037;-86
2022/03/28 12:14:20;;;;;;;18.30;12.88;;;;;;;;;;5029487;28;20114;-87
2022/03/28 12:16:48;;;;;;;19.30;12.50;;;;;;;;;;5031422;28;20124;-83
2022/03/28 12:19:19;;;;;;;19.75;13.00;;;;;;;;;;5014715;28;20049;-84
2022/03/28 12:21:52;;;;;;;18.42;12.35;;;;;;;;;;5032262;28;20037;-85
2022/03/28 12:24:20;;;;;;;17.48;12.55;;;;;;;;;;5032956;28;20045;-85
2022/03/28 12:26:48;;;;;;;17.95;13.27;;;;;;;;;;5029707;28;20053;-84
2022/03/28 12:29:15;;;;;;;18.73;13.73;;;;;;;;;;5037032;28;20046;-84
2022/03/28 12:31:46;;;;;;;16.60;12.15;;;;;;;;;;5048132;28;20058;-86
2022/03/28 12:34:13;;;;;;;18.48;13.18;;;;;;;;;;5018175;28;20494;-85
2022/03/28 12:36:39;;;;;;;18.95;13.15;;;;;;;;;;5015515;28;20030;-86
2022/03/28 12:39:10;;;;;;;19.35;13.40;;;;;;;;;;5034725;28;20034;-85
2022/03/28 12:41:44;;;;;;;17.85;12.45;;;;;;;;;;5031971;28;20384;-87
2022/03/28 12:44:13;;;;;;;17.97;12.83;;;;;;;;;;5031019;28;20053;-86
2022/03/28 12:46:40;;;;;;;18.40;12.88;;;;;;;;;;5033574;28;20049;-89
2022/03/28 12:49:13;;;;;;;17.20;13.23;;;;;;;;;;5030829;28;20049;-88
2022/03/28 12:51:40;;;;;;;16.60;12.82;;;;;;;;;;5015114;28;20448;-84
2022/03/28 12:54:07;;;;;;;16.48;12.13;;;;;;;;;;5020913;28;20042;-85
2022/03/28 12:56:43;;;;;;;17.35;13.30;;;;;;;;;;5051521;28;20052;-87
2022/03/28 12:59:10;;;;;;;17.50;13.55;;;;;;;;;;5034161;28;20084;-87
2022/03/28 13:01:36;;;;;;;20.58;13.13;;;;;;;;;;5013087;28;20038;-89
2022/03/28 13:04:17;;;;;;;16.40;13.05;;;;;;;;;;5013438;28;20081;-89
2022/03/28 13:06:45;;;;;;;21.55;14.25;;;;;;;;;;5013225;28;20521;-87
2022/03/28 13:09:12;;;;;;;18.40;13.25;;;;;;;;;;5032300;28;20045;-89
2022/03/28 13:11:38;;;;;;;17.30;13.52;;;;;;;;;;5012668;28;20430;-89
2022/03/28 13:14:07;;;;;;;16.83;13.18;;;;;;;;;;5031324;28;20326;-89
2022/03/28 13:16:34;;;;;;;18.50;14.35;;;;;;;;;;5034120;28;20034;-87
2022/03/28 13:19:04;;;;;;;16.80;13.40;;;;;;;;;;5033597;28;20033;-90
2022/03/28 13:21:32;;;;;;;18.15;14.85;;;;;;;;;;5033087;28;20052;-87
2022/03/28 13:24:08;;;;;;;18.70;14.48;;;;;;;;;;5034358;28;20049;-88
2022/03/28 13:26:38;;;;;;;16.80;13.93;;;;;;;;;;5032683;28;20073;-87
2022/03/28 13:29:23;;;;;;;19.58;14.25;;;;;;;;;;5015958;28;20405;-87
2022/03/28 13:31:53;;;;;;;19.27;14.40;;;;;;;;;;5016611;28;20060;-88
2022/03/28 13:34:19;;;;;;;19.40;15.50;;;;;;;;;;5032929;28;20041;-87
2022/03/28 13:36:45;;;;;;;20.10;15.65;;;;;;;;;;5031713;28;20137;-88
2022/03/28 13:39:12;;;;;;;18.70;15.07;;;;;;;;;;5030653;28;20123;-86
2022/03/28 13:41:38;;;;;;;19.60;15.90;;;;;;;;;;5013751;28;20070;-85
2022/03/28 13:44:07;;;;;;;21.00;16.40;;;;;;;;;;5016519;28;20052;-89
2022/03/28 13:46:34;;;;;;;20.38;16.25;;;;;;;;;;5034473;28;20037;-89
2022/03/28 13:49:00;;;;;;;19.38;15.18;;;;;;;;;;5013959;28;20045;-87
2022/03/28 13:51:28;;;;;;;18.23;15.02;;;;;;;;;;5014033;28;20056;-85
2022/03/28 13:53:54;;;;;;;18.52;14.63;;;;;;;;;;5013420;28;20045;-87
2022/03/28 13:56:21;;;;;;;19.52;15.93;;;;;;;;;;4997017;28;20041;-85
2022/03/28 13:58:47;;;;;;;20.33;16.60;;;;;;;;;;5013242;28;20038;-84
2022/03/28 14:01:13;;;;;;;24.17;16.05;;;;;;;;;;5013460;28;20088;-86
2022/03/28 14:03:40;;;;;;;19.30;16.13;;;;;;;;;;4996836;28;20129;-86
2022/03/28 14:06:07;;;;;;;18.58;16.42;;;;;;;;;;4997188;28;20046;-87
2022/03/28 14:08:36;;;;;;;20.10;15.70;;;;;;;;;;4997047;28;20045;-85
2022/03/28 14:11:03;;;;;;;19.23;16.00;;;;;;;;;;5013898;28;20509;-86
2022/03/28 14:13:30;;;;;;;18.73;16.17;;;;;;;;;;4996956;28;20112;-87
2022/03/28 14:15:57;;;;;;;21.90;16.45;;;;;;;;;;4996557;28;20038;-86
2022/03/28 14:18:25;;;;;;;21.80;16.70;;;;;;;;;;4997293;28;20516;-87
2022/03/28 14:20:52;;;;;;;20.73;15.85;;;;;;;;;;5013268;28;20045;-87
2022/03/28 14:23:18;;;;;;;19.05;16.10;;;;;;;;;;5012697;28;20045;-87